Time;durP1;ratioP1;P1;durP2;ratioP2;P2;SDS_P1;SDS_P2;PMS_P1;PMS_P2;Temp;Humidity;BMP_temperature;BMP_pressure;BME280_temperature;BME280_humidity;BME280_pressure;Samples;Min_cycle;Max_cycle;Signal;HPM_P1;HPM_P2
2021/11/13 00:00:35;;;;;;;7.43;3.90;;;6.50;99.90;;;;;;5054367;28;20195;-66
2021/11/13 00:03:01;;;;;;;0.50;0.50;;;6.50;99.90;;;;;;5054077;28;20427;-63
2021/11/13 00:05:26;;;;;;;4.17;3.80;;;6.60;99.90;;;;;;5054012;28;20204;-66
2021/11/13 00:07:52;;;;;;;4.57;4.20;;;6.60;99.90;;;;;;5054573;28;20200;-67
2021/11/13 00:10:26;;;;;;;0.40;0.30;;;6.80;99.90;;;;;;5056986;28;20837;-67
2021/11/13 00:12:51;;;;;;;0.20;0.20;;;6.70;99.90;;;;;;5055488;28;20176;-63
2021/11/13 00:15:21;;;;;;;8.37;5.47;;;6.80;99.90;;;;;;5057078;28;20177;-63
2021/11/13 00:17:48;;;;;;;2.63;2.45;;;6.70;99.90;;;;;;5056819;28;20196;-63
2021/11/13 00:20:15;;;;;;;9.98;3.92;;;6.70;99.90;;;;;;5056603;28;20250;-62
2021/11/13 00:22:42;;;;;;;6.18;2.75;;;6.60;99.90;;;;;;5056666;28;20184;-63
2021/11/13 00:25:08;;;;;;;8.43;1.50;;;6.60;99.90;;;;;;5056657;28;20258;-62
2021/11/13 00:27:34;;;;;;;2.28;2.05;;;6.60;99.90;;;;;;5055372;28;20235;-63
2021/11/13 00:29:59;;;;;;;2.60;1.90;;;6.60;99.90;;;;;;5056355;28;20185;-64
2021/11/13 00:32:25;;;;;;;0.80;0.80;;;6.60;99.90;;;;;;5055644;28;20510;-65
2021/11/13 00:34:51;;;;;;;3.80;0.80;;;6.60;99.90;;;;;;5056489;28;20540;-63
2021/11/13 00:37:16;;;;;;;2.10;2.00;;;6.60;99.90;;;;;;5056215;28;20524;-62
2021/11/13 00:39:42;;;;;;;1.17;0.80;;;6.50;99.90;;;;;;5055026;28;20231;-65
2021/11/13 00:42:08;;;;;;;4.37;4.17;;;6.50;99.90;;;;;;5055871;28;20234;-64
2021/11/13 00:44:34;;;;;;;1.13;1.03;;;6.50;99.90;;;;;;5056867;28;20222;-66
2021/11/13 00:47:00;;;;;;;3.85;2.85;;;6.50;99.90;;;;;;5056904;28;20735;-65
2021/11/13 00:49:26;;;;;;;6.43;1.95;;;6.60;99.90;;;;;;5054965;28;20189;-64
2021/11/13 00:51:52;;;;;;;2.87;2.67;;;6.50;99.90;;;;;;5056476;28;20203;-63
2021/11/13 00:54:17;;;;;;;0.20;0.20;;;6.50;99.90;;;;;;5056252;28;20257;-63
2021/11/13 00:56:43;;;;;;;1.50;1.43;;;6.50;99.90;;;;;;5056489;28;20229;-63
2021/11/13 00:59:09;;;;;;;1.13;1.13;;;6.60;99.90;;;;;;5055954;28;20185;-63
2021/11/13 01:01:34;;;;;;;3.60;2.43;;;6.70;99.90;;;;;;5056285;28;20235;-65
2021/11/13 01:04:00;;;;;;;2.00;1.90;;;6.60;99.90;;;;;;5056321;28;20274;-64
2021/11/13 01:06:25;;;;;;;0.30;0.20;;;6.50;99.90;;;;;;5055107;28;20180;-66
2021/11/13 01:08:51;;;;;;;3.10;2.33;;;6.60;99.90;;;;;;5056177;28;20272;-64
2021/11/13 01:11:17;;;;;;;5.80;2.70;;;6.60;99.90;;;;;;5055873;28;20176;-66
2021/11/13 01:13:44;;;;;;;6.90;4.93;;;6.60;99.90;;;;;;5055124;28;20582;-63
2021/11/13 01:16:09;;;;;;;4.80;3.25;;;6.70;99.90;;;;;;5056008;28;20258;-66
2021/11/13 01:18:38;;;;;;;7.40;4.23;;;6.80;99.90;;;;;;5055572;28;20598;-66
2021/11/13 01:21:04;;;;;;;1.42;1.42;;;6.80;99.90;;;;;;5055904;28;20422;-63
2021/11/13 01:23:29;;;;;;;4.93;0.60;;;6.80;99.90;;;;;;5055831;28;20177;-66
2021/11/13 01:25:55;;;;;;;1.30;0.63;;;6.80;99.90;;;;;;5055785;28;20427;-65
2021/11/13 01:28:20;;;;;;;2.93;2.20;;;6.80;99.90;;;;;;5054300;28;20677;-65
2021/11/13 01:30:46;;;;;;;3.07;2.67;;;6.80;99.90;;;;;;5054686;28;20188;-65
2021/11/13 01:33:12;;;;;;;0.43;0.43;;;6.60;99.90;;;;;;5055538;28;20177;-67
2021/11/13 01:35:38;;;;;;;0.20;0.20;;;6.70;99.90;;;;;;5055688;28;20188;-65
2021/11/13 01:38:03;;;;;;;2.53;2.43;;;6.80;99.90;;;;;;5055422;28;20435;-65
2021/11/13 01:40:29;;;;;;;1.80;0.80;;;6.80;99.90;;;;;;5055386;28;20654;-65
2021/11/13 01:42:56;;;;;;;0.80;0.67;;;6.80;99.90;;;;;;5055355;28;20444;-65
2021/11/13 01:45:23;;;;;;;1.45;1.45;;;6.80;99.90;;;;;;5055203;28;20626;-65
2021/11/13 01:47:49;;;;;;;1.52;1.42;;;6.90;99.90;;;;;;5055172;28;20173;-61
2021/11/13 01:50:17;;;;;;;2.47;2.38;;;6.90;99.90;;;;;;5055986;28;20606;-63
2021/11/13 01:52:43;;;;;;;2.22;2.13;;;6.80;99.90;;;;;;5055515;28;20242;-63
2021/11/13 01:55:11;;;;;;;3.50;1.77;;;7.10;99.90;;;;;;5053885;28;20212;-65
2021/11/13 01:57:47;;;;;;;0.60;0.60;;;7.00;99.90;;;;;;5055174;28;20208;-64
2021/11/13 02:00:25;;;;;;;3.47;3.22;;;7.00;99.90;;;;;;5055089;28;20185;-64
2021/11/13 02:02:50;;;;;;;1.20;0.63;;;7.00;99.90;;;;;;5055166;28;20186;-67
2021/11/13 02:05:16;;;;;;;0.20;0.20;;;6.90;99.90;;;;;;5055160;28;20617;-63
2021/11/13 02:07:43;;;;;;;1.70;1.60;;;6.90;99.90;;;;;;5054710;28;20185;-63
2021/11/13 02:10:09;;;;;;;2.15;1.95;;;7.10;99.90;;;;;;5054554;28;20423;-63
2021/11/13 02:12:35;;;;;;;3.50;3.25;;;7.00;99.90;;;;;;5053927;28;20189;-66
2021/11/13 02:15:02;;;;;;;1.13;1.03;;;7.00;99.90;;;;;;5053685;28;20582;-63
2021/11/13 02:17:28;;;;;;;6.47;1.33;;;6.80;99.90;;;;;;5053541;28;20602;-65
2021/11/13 02:19:53;;;;;;;1.27;1.17;;;6.70;99.90;;;;;;5053376;28;20188;-66
2021/11/13 02:22:21;;;;;;;8.63;5.00;;;6.80;99.90;;;;;;5054527;28;20612;-63
2021/11/13 02:24:47;;;;;;;2.28;1.50;;;6.80;99.90;;;;;;5054405;28;20215;-63
2021/11/13 02:27:12;;;;;;;1.10;1.10;;;6.70;99.90;;;;;;5054494;28;20192;-63
2021/11/13 02:29:38;;;;;;;0.50;0.50;;;6.80;99.90;;;;;;5054087;28;20177;-61
2021/11/13 02:32:04;;;;;;;4.73;2.90;;;7.00;99.90;;;;;;5054211;28;20219;-61
2021/11/13 02:34:30;;;;;;;0.90;0.90;;;7.00;99.90;;;;;;5054436;28;20767;-61
2021/11/13 02:36:55;;;;;;;43.83;41.60;;;7.10;99.90;;;;;;5054470;28;20177;-65
2021/11/13 02:39:22;;;;;;;7.10;5.27;;;7.10;99.90;;;;;;5054137;28;20758;-65
2021/11/13 02:41:48;;;;;;;0.20;0.20;;;7.00;99.90;;;;;;5054383;28;20275;-65
2021/11/13 02:44:17;;;;;;;0.30;0.30;;;7.00;99.90;;;;;;5054186;28;20247;-65
2021/11/13 02:46:43;;;;;;;0.88;0.88;;;7.00;99.90;;;;;;5054485;28;20268;-63
2021/11/13 02:49:10;;;;;;;0.73;0.73;;;7.00;99.90;;;;;;5054023;28;20272;-63
2021/11/13 02:51:36;;;;;;;7.13;4.10;;;7.20;99.90;;;;;;5054228;28;20585;-63
2021/11/13 02:54:01;;;;;;;2.30;2.20;;;7.20;91.80;;;;;;5054301;28;20203;-65
2021/11/13 02:56:27;;;;;;;4.03;2.80;;;7.10;99.90;;;;;;5054650;28;20455;-65
2021/11/13 02:58:53;;;;;;;1.53;1.43;;;7.10;95.80;;;;;;5054073;28;20479;-65
2021/11/13 03:01:21;;;;;;;9.53;9.03;;;7.20;97.10;;;;;;5054270;28;20952;-65
2021/11/13 03:03:49;;;;;;;1.67;1.58;;;7.30;97.10;;;;;;5054109;28;20230;-68
2021/11/13 03:06:15;;;;;;;4.68;2.50;;;7.50;81.80;;;;;;5053300;28;20177;-67
2021/11/13 03:08:42;;;;;;;0.55;0.55;;;7.50;47.10;;;;;;5053896;28;20247;-65
2021/11/13 03:11:11;;;;;;;0.50;0.50;;;7.60;18.80;;;;;;5053973;28;20173;-66
2021/11/13 03:13:39;;;;;;;0.68;0.68;;;7.50;1.00;;;;;;5053696;28;20188;-67
2021/11/13 03:16:06;;;;;;;0.73;0.73;;;7.50;6.90;;;;;;5053980;28;20172;-67
2021/11/13 03:18:32;;;;;;;1.27;1.27;;;7.40;7.40;;;;;;5053729;28;20177;-65
2021/11/13 03:20:58;;;;;;;5.72;3.92;;;7.50;23.20;;;;;;5054016;28;20179;-65
2021/11/13 03:23:25;;;;;;;1.85;1.35;;;7.40;5.50;;;;;;5053925;28;20180;-65
2021/11/13 03:26:03;;;;;;;1.85;1.75;;;7.40;40.60;;;;;;5053938;28;20185;-61
2021/11/13 03:28:33;;;;;;;0.25;0.20;;;7.30;62.10;;;;;;5053810;28;20248;-63
2021/11/13 03:31:02;;;;;;;0.40;0.40;;;7.30;88.20;;;;;;5053848;28;20173;-63
2021/11/13 03:33:32;;;;;;;1.80;1.38;;;7.40;99.90;;;;;;5053672;28;20533;-66
2021/11/13 03:35:59;;;;;;;0.45;0.30;;;7.40;99.00;;;;;;5053845;28;20594;-65
2021/11/13 03:38:25;;;;;;;2.42;2.05;;;7.50;97.10;;;;;;5053386;28;20180;-65
2021/11/13 03:40:51;;;;;;;2.37;1.03;;;7.30;76.90;;;;;;5053501;28;20497;-65
2021/11/13 03:43:17;;;;;;;1.30;0.95;;;6.90;99.90;;;;;;5053627;28;20442;-65
2021/11/13 03:45:44;;;;;;;10.02;4.40;;;6.90;99.90;;;;;;5053651;28;20219;-65
2021/11/13 03:48:10;;;;;;;1.10;1.05;;;6.90;99.90;;;;;;5053247;28;20177;-65
2021/11/13 03:50:36;;;;;;;3.23;2.67;;;7.10;99.90;;;;;;5053651;28;20173;-65
2021/11/13 03:53:04;;;;;;;0.63;0.63;;;7.00;99.90;;;;;;5053469;28;20618;-65
2021/11/13 03:55:31;;;;;;;9.07;5.22;;;7.10;99.90;;;;;;5053493;28;20434;-65
2021/11/13 03:57:58;;;;;;;1.95;1.75;;;7.00;99.90;;;;;;5053453;28;20177;-64
2021/11/13 04:00:23;;;;;;;2.30;2.15;;;7.00;99.90;;;;;;5051899;28;20181;-64
2021/11/13 04:02:49;;;;;;;0.30;0.20;;;7.00;99.90;;;;;;5053140;28;20181;-65
2021/11/13 04:05:16;;;;;;;0.68;0.68;;;7.10;99.90;;;;;;5053201;28;20216;-67
2021/11/13 04:07:42;;;;;;;0.82;0.82;;;7.30;99.90;;;;;;5053307;28;20187;-67
2021/11/13 04:10:10;;;;;;;0.33;0.33;;;7.30;99.90;;;;;;5053241;28;20547;-65
2021/11/13 04:12:36;;;;;;;2.70;2.50;;;7.30;99.90;;;;;;5053480;28;20256;-65
2021/11/13 04:15:03;;;;;;;6.97;5.05;;;7.40;99.90;;;;;;5053412;28;20177;-65
2021/11/13 04:17:29;;;;;;;1.60;1.50;;;7.30;99.90;;;;;;5053012;28;20181;-64
2021/11/13 04:19:55;;;;;;;0.93;0.83;;;7.40;99.90;;;;;;5056577;28;20599;-63
2021/11/13 04:22:21;;;;;;;0.85;0.85;;;7.40;99.90;;;;;;5055627;28;20431;-63
2021/11/13 04:24:48;;;;;;;0.20;0.20;;;7.30;99.90;;;;;;5055787;28;20242;-65
2021/11/13 04:27:15;;;;;;;1.02;1.02;;;7.40;99.90;;;;;;5056852;28;20212;-65
2021/11/13 04:29:42;;;;;;;1.60;1.60;;;7.40;99.90;;;;;;5056517;28;20480;-65
2021/11/13 04:32:08;;;;;;;0.95;0.95;;;7.40;99.90;;;;;;5057274;28;20266;-65
2021/11/13 04:34:44;;;;;;;0.20;0.20;;;7.40;99.90;;;;;;5056827;28;20221;-67
2021/11/13 04:37:18;;;;;;;0.57;0.57;;;7.40;99.90;;;;;;5056711;28;20518;-65
2021/11/13 04:39:48;;;;;;;0.20;0.20;;;7.40;99.90;;;;;;5056318;28;20670;-65
2021/11/13 04:42:14;;;;;;;1.65;1.63;;;7.30;99.90;;;;;;5056568;28;20184;-67
2021/11/13 04:44:40;;;;;;;2.15;1.85;;;7.30;99.90;;;;;;5056307;28;20216;-65
2021/11/13 04:47:07;;;;;;;0.20;0.20;;;7.30;99.90;;;;;;5056667;28;20177;-65
2021/11/13 04:49:32;;;;;;;0.20;0.20;;;7.30;99.90;;;;;;5056693;28;20888;-65
2021/11/13 04:52:00;;;;;;;1.63;1.30;;;7.30;99.90;;;;;;5056930;28;20187;-65
2021/11/13 04:54:26;;;;;;;5.10;2.70;;;7.30;99.90;;;;;;5056132;28;20541;-67
2021/11/13 04:56:53;;;;;;;0.20;0.20;;;7.50;99.90;;;;;;5056293;28;20283;-67
2021/11/13 04:59:19;;;;;;;4.63;4.35;;;7.50;99.90;;;;;;5055817;28;20181;-63
2021/11/13 05:01:45;;;;;;;0.20;0.20;;;7.40;99.90;;;;;;5054951;28;20192;-63
2021/11/13 05:04:10;;;;;;;0.20;0.20;;;7.40;99.90;;;;;;5056065;28;20459;-62
2021/11/13 05:06:36;;;;;;;0.47;0.47;;;7.60;99.90;;;;;;5056001;28;20502;-63
2021/11/13 05:09:02;;;;;;;0.30;0.30;;;7.50;99.90;;;;;;5055878;28;20231;-63
2021/11/13 05:11:28;;;;;;;0.20;0.20;;;7.60;99.90;;;;;;5056215;28;20242;-63
2021/11/13 05:13:53;;;;;;;1.90;1.43;;;7.60;99.90;;;;;;5055964;28;20749;-63
2021/11/13 05:16:19;;;;;;;6.47;3.00;;;7.70;99.90;;;;;;5054818;28;20598;-63
2021/11/13 05:18:44;;;;;;;2.00;0.73;;;7.70;99.90;;;;;;5055757;28;20185;-65
2021/11/13 05:21:10;;;;;;;1.23;1.13;;;7.50;99.90;;;;;;5055612;28;20177;-65
2021/11/13 05:23:36;;;;;;;1.63;1.50;;;7.40;99.90;;;;;;5055713;28;20185;-65
2021/11/13 05:26:02;;;;;;;2.47;2.25;;;7.40;99.90;;;;;;5055800;28;20215;-65
2021/11/13 05:28:28;;;;;;;1.80;1.70;;;7.40;99.90;;;;;;5055173;28;20173;-67
2021/11/13 05:30:54;;;;;;;0.30;0.20;;;7.20;99.90;;;;;;5055661;28;20173;-67
2021/11/13 05:33:20;;;;;;;0.30;0.20;;;7.20;99.90;;;;;;5055320;28;20183;-67
2021/11/13 05:35:46;;;;;;;1.35;1.25;;;7.30;99.90;;;;;;5055314;28;20510;-67
2021/11/13 05:38:11;;;;;;;5.40;1.17;;;7.20;99.90;;;;;;5055172;28;20594;-63
2021/11/13 05:40:37;;;;;;;0.20;0.20;;;7.10;99.90;;;;;;5055442;28;20499;-63
2021/11/13 05:43:03;;;;;;;0.20;0.20;;;7.20;99.90;;;;;;5055521;28;20192;-63
2021/11/13 05:45:29;;;;;;;0.40;0.40;;;7.10;99.90;;;;;;5055275;28;20558;-63
2021/11/13 05:47:55;;;;;;;1.13;1.13;;;7.10;99.90;;;;;;5055090;28;20621;-63
2021/11/13 05:50:21;;;;;;;0.73;0.73;;;7.20;99.90;;;;;;5055116;28;20169;-62
2021/11/13 05:52:49;;;;;;;4.80;4.40;;;7.30;99.90;;;;;;5055104;28;20492;-66
2021/11/13 05:55:16;;;;;;;0.47;0.47;;;7.40;99.90;;;;;;5055092;28;20466;-65
2021/11/13 05:57:42;;;;;;;1.25;1.17;;;7.30;99.90;;;;;;5054962;28;20176;-65
2021/11/13 06:00:12;;;;;;;0.60;0.60;;;7.30;99.90;;;;;;5054832;28;20199;-65
2021/11/13 06:02:38;;;;;;;0.20;0.20;;;7.40;99.90;;;;;;5054096;28;20820;-63
2021/11/13 06:05:04;;;;;;;1.42;1.33;;;7.20;99.90;;;;;;5053337;28;20271;-63
2021/11/13 06:07:30;;;;;;;1.75;1.65;;;7.20;99.90;;;;;;5054707;28;20173;-63
2021/11/13 06:09:55;;;;;;;2.37;2.27;;;7.00;99.90;;;;;;5054461;28;20169;-63
2021/11/13 06:12:21;;;;;;;2.50;2.40;;;6.90;99.90;;;;;;5054151;28;20168;-63
2021/11/13 06:14:46;;;;;;;0.90;0.90;;;7.10;99.90;;;;;;5054259;28;20552;-63
2021/11/13 06:17:12;;;;;;;0.47;0.47;;;7.20;99.90;;;;;;5054172;28;20586;-66
2021/11/13 06:19:37;;;;;;;2.77;2.57;;;7.20;99.90;;;;;;5052415;28;20193;-66
2021/11/13 06:22:03;;;;;;;5.77;4.33;;;7.00;99.90;;;;;;5053113;28;20190;-66
2021/11/13 06:24:31;;;;;;;4.47;3.50;;;7.00;99.90;;;;;;5052836;28;20245;-66
2021/11/13 06:26:56;;;;;;;3.75;3.22;;;6.90;99.90;;;;;;5053897;28;20184;-64
2021/11/13 06:29:22;;;;;;;0.70;0.67;;;6.90;99.90;;;;;;5050495;28;20185;-64
2021/11/13 06:31:48;;;;;;;0.30;0.30;;;6.90;99.90;;;;;;5048264;28;20180;-66
2021/11/13 06:34:13;;;;;;;2.70;2.50;;;7.00;99.90;;;;;;5053726;28;20185;-66
2021/11/13 06:36:39;;;;;;;0.97;0.97;;;7.00;99.90;;;;;;5053860;28;20188;-67
2021/11/13 06:39:04;;;;;;;6.43;5.90;;;7.00;99.90;;;;;;5053632;28;20256;-66
2021/11/13 06:41:30;;;;;;;0.30;0.30;;;6.90;99.90;;;;;;5050375;28;20193;-66
2021/11/13 06:44:00;;;;;;;2.10;2.00;;;6.80;99.90;;;;;;5041460;28;20201;-66
2021/11/13 06:46:26;;;;;;;0.20;0.20;;;7.00;99.90;;;;;;5043323;28;20184;-66
2021/11/13 06:48:52;;;;;;;0.20;0.20;;;7.00;99.90;;;;;;5043753;28;20398;-66
2021/11/13 06:51:19;;;;;;;0.30;0.25;;;7.10;99.90;;;;;;5033942;28;20235;-66
2021/11/13 06:53:45;;;;;;;6.55;6.05;;;7.10;99.90;;;;;;5033502;28;20197;-66
2021/11/13 06:56:11;;;;;;;0.20;0.20;;;7.10;99.90;;;;;;5032665;28;20181;-66
2021/11/13 06:58:37;;;;;;;1.90;1.80;;;7.10;99.90;;;;;;5033349;28;20443;-64
2021/11/13 07:01:03;;;;;;;0.27;0.20;;;7.00;99.90;;;;;;5033593;28;20173;-64
2021/11/13 07:03:28;;;;;;;2.50;2.38;;;7.00;99.90;;;;;;5033822;28;20450;-64
2021/11/13 07:05:54;;;;;;;3.73;3.50;;;7.00;99.90;;;;;;5033585;28;20213;-64
2021/11/13 07:08:19;;;;;;;4.53;2.87;;;7.10;99.90;;;;;;5033696;28;20190;-64
2021/11/13 07:10:45;;;;;;;0.67;0.67;;;6.90;99.90;;;;;;5032542;28;20181;-64
2021/11/13 07:13:10;;;;;;;1.47;1.37;;;7.10;99.90;;;;;;5033435;28;20186;-65
2021/11/13 07:15:36;;;;;;;0.47;0.47;;;7.20;99.90;;;;;;5033442;28;20220;-64
2021/11/13 07:18:03;;;;;;;3.37;1.50;;;7.20;99.90;;;;;;5033915;28;20181;-64
2021/11/13 07:20:31;;;;;;;0.22;0.22;;;7.30;99.90;;;;;;5035104;28;20462;-63
2021/11/13 07:22:57;;;;;;;1.42;1.30;;;7.20;99.90;;;;;;5033734;28;20188;-63
2021/11/13 07:25:25;;;;;;;3.23;1.73;;;7.20;99.90;;;;;;5033363;28;20213;-63
2021/11/13 07:27:51;;;;;;;0.50;0.45;;;7.10;99.90;;;;;;5033181;28;20186;-63
2021/11/13 07:30:19;;;;;;;0.60;0.60;;;7.20;99.90;;;;;;5034023;28;20183;-65
2021/11/13 07:32:45;;;;;;;0.30;0.20;;;7.30;99.90;;;;;;5033314;28;20424;-64
2021/11/13 07:35:11;;;;;;;0.40;0.20;;;7.20;99.90;;;;;;5033461;28;20185;-64
2021/11/13 07:37:37;;;;;;;6.10;2.77;;;7.20;99.90;;;;;;5033156;28;20192;-64
2021/11/13 07:40:04;;;;;;;1.43;1.33;;;7.20;99.90;;;;;;5032831;28;20514;-64
2021/11/13 07:42:29;;;;;;;1.02;1.02;;;7.20;99.90;;;;;;5033130;28;20205;-64
2021/11/13 07:44:57;;;;;;;3.17;0.63;;;7.30;99.90;;;;;;5033072;28;20232;-64
2021/11/13 07:47:22;;;;;;;0.47;0.47;;;7.40;99.90;;;;;;5033500;28;20554;-64
2021/11/13 07:49:48;;;;;;;1.03;1.03;;;7.50;99.90;;;;;;5032924;28;20265;-65
2021/11/13 07:52:14;;;;;;;3.43;0.93;;;7.50;99.90;;;;;;5033175;28;20184;-64
2021/11/13 07:54:39;;;;;;;4.50;4.20;;;7.40;99.90;;;;;;5036969;28;20189;-64
2021/11/13 07:57:06;;;;;;;0.20;0.17;;;7.40;99.90;;;;;;5036751;28;20547;-64
2021/11/13 07:59:32;;;;;;;1.10;0.77;;;7.40;99.90;;;;;;5036752;28;20186;-64
2021/11/13 08:01:58;;;;;;;1.83;1.73;;;7.40;99.90;;;;;;5036756;28;20235;-64
2021/11/13 08:04:23;;;;;;;1.27;0.93;;;7.40;99.90;;;;;;5036653;28;20529;-64
2021/11/13 08:06:49;;;;;;;1.90;1.60;;;7.50;99.90;;;;;;5036566;28;20264;-65
2021/11/13 08:09:14;;;;;;;1.10;1.03;;;7.50;99.90;;;;;;5036357;28;20350;-65
2021/11/13 08:11:40;;;;;;;5.30;4.07;;;7.50;99.90;;;;;;5038236;28;20196;-65
2021/11/13 08:14:05;;;;;;;2.30;2.20;;;7.40;99.90;;;;;;5046070;28;20204;-64
2021/11/13 08:16:31;;;;;;;2.03;1.83;;;7.50;99.90;;;;;;5044370;28;20187;-64
2021/11/13 08:18:57;;;;;;;0.95;0.95;;;7.60;99.90;;;;;;5044671;28;20188;-64
2021/11/13 08:21:23;;;;;;;2.73;2.63;;;7.60;99.90;;;;;;5044466;28;20510;-65
2021/11/13 08:23:49;;;;;;;0.20;0.20;;;7.50;99.90;;;;;;5047076;28;20243;-65
2021/11/13 08:26:15;;;;;;;7.80;2.90;;;7.40;99.90;;;;;;5044026;28;20622;-64
2021/11/13 08:28:40;;;;;;;0.30;0.30;;;7.50;99.90;;;;;;5044849;28;20177;-61
2021/11/13 08:31:06;;;;;;;1.43;1.37;;;7.40;99.90;;;;;;5041933;28;20188;-61
2021/11/13 08:33:32;;;;;;;1.27;1.27;;;7.40;99.90;;;;;;5044296;28;20178;-62
2021/11/13 08:35:58;;;;;;;0.30;0.20;;;7.40;99.90;;;;;;5052004;28;20185;-62
2021/11/13 08:38:24;;;;;;;0.40;0.40;;;7.50;99.90;;;;;;5056155;28;20184;-63
2021/11/13 08:40:52;;;;;;;1.95;1.85;;;7.60;99.90;;;;;;5054842;28;20752;-63
2021/11/13 08:43:19;;;;;;;0.95;0.95;;;7.70;99.90;;;;;;5055500;28;20227;-66
2021/11/13 08:45:46;;;;;;;0.30;0.25;;;7.70;99.90;;;;;;5051863;28;20812;-65
2021/11/13 08:48:12;;;;;;;8.70;3.22;;;7.90;99.90;;;;;;5052255;28;20185;-65
2021/11/13 08:50:39;;;;;;;3.33;2.10;;;7.80;99.90;;;;;;5053619;28;20184;-65
2021/11/13 08:53:07;;;;;;;0.30;0.30;;;7.90;99.90;;;;;;5054939;28;20472;-65
2021/11/13 08:55:36;;;;;;;0.55;0.50;;;7.80;99.90;;;;;;5055732;28;20264;-65
2021/11/13 08:58:04;;;;;;;0.20;0.20;;;7.90;99.90;;;;;;5056202;28;20193;-65
2021/11/13 09:00:51;;;;;;;0.60;0.60;;;8.00;99.90;;;;;;5054889;28;20183;-64
2021/11/13 09:03:29;;;;;;;0.20;0.20;;;7.80;99.90;;;;;;5055479;28;20187;-65
2021/11/13 09:05:56;;;;;;;0.63;0.50;;;7.90;99.90;;;;;;5055699;28;20204;-65
2021/11/13 09:08:23;;;;;;;0.63;0.63;;;7.90;99.90;;;;;;5055614;28;20280;-64
2021/11/13 09:10:50;;;;;;;1.85;1.75;;;8.00;99.90;;;;;;5055991;28;20184;-64
2021/11/13 09:13:19;;;;;;;1.50;1.40;;;7.80;99.90;;;;;;5055973;28;20250;-63
2021/11/13 09:15:45;;;;;;;0.30;0.25;;;7.80;99.90;;;;;;5054613;28;20250;-65
2021/11/13 09:18:11;;;;;;;0.65;0.30;;;7.70;99.90;;;;;;5055571;28;20183;-65
2021/11/13 09:20:39;;;;;;;2.40;1.67;;;7.80;99.90;;;;;;5055689;28;20199;-65
2021/11/13 09:23:06;;;;;;;4.90;3.00;;;7.80;99.90;;;;;;5055491;28;20817;-66
2021/11/13 09:25:32;;;;;;;1.90;1.83;;;7.80;99.90;;;;;;5055187;28;20208;-68
2021/11/13 09:27:59;;;;;;;0.30;0.20;;;7.90;99.90;;;;;;5054992;28;20234;-65
2021/11/13 09:30:29;;;;;;;0.50;0.50;;;8.00;99.90;;;;;;5055474;28;20514;-65
2021/11/13 09:32:55;;;;;;;1.50;0.88;;;7.80;99.90;;;;;;5055755;28;20185;-66
2021/11/13 09:35:22;;;;;;;1.77;1.67;;;7.80;99.90;;;;;;5052375;28;20188;-65
2021/11/13 09:37:49;;;;;;;5.70;2.28;;;7.80;99.90;;;;;;5053957;28;20207;-63
2021/11/13 09:40:19;;;;;;;2.42;2.22;;;7.60;99.90;;;;;;5054353;28;20172;-67
2021/11/13 09:42:48;;;;;;;1.15;1.15;;;7.70;99.90;;;;;;5054525;28;20210;-64
2021/11/13 09:45:14;;;;;;;1.60;1.60;;;7.90;99.90;;;;;;5053961;28;20216;-63
2021/11/13 09:47:46;;;;;;;0.57;0.57;;;8.00;99.90;;;;;;5054441;28;20172;-64
2021/11/13 09:50:13;;;;;;;1.23;1.23;;;8.10;99.90;;;;;;5053261;28;20197;-64
2021/11/13 09:52:40;;;;;;;0.30;0.30;;;8.20;99.90;;;;;;5053184;28;20191;-65
2021/11/13 09:55:08;;;;;;;1.23;1.23;;;8.30;99.90;;;;;;5054458;28;20195;-64
2021/11/13 09:57:34;;;;;;;2.13;0.75;;;8.10;99.90;;;;;;5054260;28;20184;-64
2021/11/13 10:00:00;;;;;;;1.95;1.30;;;8.10;99.90;;;;;;5054223;28;20193;-62
2021/11/13 10:02:26;;;;;;;11.83;3.40;;;8.00;99.90;;;;;;5054346;28;20188;-62
2021/11/13 10:04:51;;;;;;;6.87;3.77;;;8.10;99.90;;;;;;5054064;28;20286;-61
2021/11/13 10:07:17;;;;;;;0.50;0.50;;;8.20;99.90;;;;;;5053330;28;20184;-64
2021/11/13 10:09:42;;;;;;;1.90;1.10;;;8.20;99.90;;;;;;5053955;28;20594;-64
2021/11/13 10:12:09;;;;;;;30.07;7.40;;;8.40;99.90;;;;;;5054017;28;20223;-65
2021/11/13 10:14:40;;;;;;;0.20;0.20;;;8.80;99.90;;;;;;5053807;28;20263;-65
2021/11/13 10:17:24;;;;;;;0.20;0.20;;;8.90;99.90;;;;;;5054246;28;20195;-66
2021/11/13 10:19:50;;;;;;;0.20;0.20;;;9.00;99.90;;;;;;5053779;28;20617;-66
2021/11/13 10:22:17;;;;;;;2.10;1.35;;;9.00;99.90;;;;;;5053978;28;20613;-63
2021/11/13 10:24:50;;;;;;;0.20;0.20;;;8.80;99.90;;;;;;5053890;28;20257;-64
2021/11/13 10:27:16;;;;;;;3.53;3.03;;;8.70;99.90;;;;;;5053761;28;20205;-64
2021/11/13 10:29:44;;;;;;;6.30;1.17;;;8.80;99.90;;;;;;5053714;28;20212;-64
2021/11/13 10:32:13;;;;;;;5.95;4.28;;;8.80;99.90;;;;;;5053822;28;20172;-67
2021/11/13 10:34:48;;;;;;;2.53;2.38;;;8.80;99.90;;;;;;5053821;28;20185;-63
2021/11/13 10:37:16;;;;;;;0.68;0.68;;;8.90;99.90;;;;;;5053542;28;20242;-63
2021/11/13 10:39:44;;;;;;;0.20;0.20;;;9.10;99.90;;;;;;5053768;28;20194;-63
2021/11/13 10:42:22;;;;;;;1.13;0.68;;;9.10;99.90;;;;;;5052692;28;20176;-64
2021/11/13 10:44:49;;;;;;;0.30;0.30;;;9.00;99.90;;;;;;5054029;28;20211;-67
2021/11/13 10:47:17;;;;;;;2.17;2.08;;;8.90;99.90;;;;;;5052837;28;20557;-63
2021/11/13 10:49:44;;;;;;;2.15;1.85;;;8.80;99.90;;;;;;5053589;28;20602;-65
2021/11/13 10:52:12;;;;;;;0.35;0.35;;;8.60;99.90;;;;;;5053694;28;20216;-65
2021/11/13 10:54:48;;;;;;;0.65;0.65;;;8.50;99.90;;;;;;5053528;28;20192;-67
2021/11/13 10:57:27;;;;;;;1.00;0.93;;;8.70;99.90;;;;;;5053593;28;20314;-66
2021/11/13 10:59:53;;;;;;;0.95;0.95;;;8.80;99.90;;;;;;5053210;28;20183;-68
2021/11/13 11:02:21;;;;;;;0.20;0.20;;;8.80;99.90;;;;;;5053493;28;20199;-67
2021/11/13 11:04:48;;;;;;;0.65;0.65;;;8.90;99.90;;;;;;5052517;28;20617;-65
2021/11/13 11:07:21;;;;;;;0.20;0.20;;;8.80;99.90;;;;;;5053626;28;20516;-64
2021/11/13 11:09:58;;;;;;;3.22;3.00;;;9.10;99.90;;;;;;5053184;28;20190;-65
2021/11/13 11:12:29;;;;;;;0.30;0.30;;;9.00;99.90;;;;;;5053333;28;20172;-67
2021/11/13 11:14:55;;;;;;;1.27;1.27;;;9.00;99.90;;;;;;5053560;28;20180;-66
2021/11/13 11:17:30;;;;;;;0.20;0.20;;;9.00;99.90;;;;;;5053219;28;20658;-65
2021/11/13 11:20:07;;;;;;;0.20;0.20;;;9.10;99.90;;;;;;5053056;28;20183;-66
2021/11/13 11:22:32;;;;;;;0.55;0.55;;;9.10;99.90;;;;;;5052064;28;20205;-66
2021/11/13 11:25:06;;;;;;;0.20;0.20;;;9.10;99.90;;;;;;5052302;28;20208;-65
2021/11/13 11:27:44;;;;;;;0.50;0.50;;;9.20;99.90;;;;;;5055696;28;20462;-66
2021/11/13 11:30:18;;;;;;;0.30;0.20;;;9.30;99.90;;;;;;5057045;28;20215;-67
2021/11/13 11:32:44;;;;;;;0.52;0.52;;;9.40;99.90;;;;;;5057357;28;20176;-65
2021/11/13 11:35:22;;;;;;;0.20;0.20;;;9.40;99.90;;;;;;5056810;28;20190;-63
2021/11/13 11:37:48;;;;;;;0.52;0.50;;;9.50;99.90;;;;;;5055952;28;20180;-63
2021/11/13 11:40:37;;;;;;;0.77;0.77;;;9.40;99.90;;;;;;5056006;28;20214;-64
2021/11/13 11:43:04;;;;;;;0.77;0.77;;;9.60;99.90;;;;;;5056874;28;20622;-62
2021/11/13 11:45:35;;;;;;;1.85;1.38;;;9.50;99.90;;;;;;5051024;28;20552;-65
2021/11/13 11:48:02;;;;;;;0.30;0.20;;;9.70;99.90;;;;;;5056596;28;20311;-68
2021/11/13 11:50:32;;;;;;;2.20;1.42;;;10.00;99.90;;;;;;5057229;28;20264;-65
2021/11/13 11:53:06;;;;;;;0.80;0.80;;;10.10;99.90;;;;;;5054204;28;20197;-68
2021/11/13 11:55:32;;;;;;;1.00;0.68;;;10.30;99.90;;;;;;5056834;28;20181;-66
2021/11/13 11:58:05;;;;;;;2.63;2.53;;;10.40;99.90;;;;;;5057558;28;20204;-68
2021/11/13 12:00:34;;;;;;;1.55;1.45;;;10.40;99.90;;;;;;5053332;28;20184;-66
2021/11/13 12:03:03;;;;;;;0.20;0.20;;;10.30;99.90;;;;;;5057677;28;20181;-66
2021/11/13 12:05:32;;;;;;;1.27;0.85;;;10.30;99.90;;;;;;5051188;28;20645;-64
2021/11/13 12:08:13;;;;;;;0.20;0.20;;;10.20;99.90;;;;;;5056453;28;20235;-65
2021/11/13 12:10:39;;;;;;;0.30;0.20;;;10.10;99.90;;;;;;5058207;28;20263;-67
2021/11/13 12:13:06;;;;;;;0.30;0.20;;;10.40;99.90;;;;;;5056986;28;20272;-66
2021/11/13 12:15:49;;;;;;;1.17;0.68;;;10.40;99.90;;;;;;5054960;28;20196;-66
2021/11/13 12:18:24;;;;;;;0.20;0.20;;;10.20;99.90;;;;;;5054048;28;20653;-63
2021/11/13 12:21:04;;;;;;;0.75;0.75;;;10.10;99.90;;;;;;5056587;28;20487;-63
2021/11/13 12:23:36;;;;;;;0.30;0.20;;;10.20;99.90;;;;;;5056543;28;20958;-62
2021/11/13 12:26:33;;;;;;;2.97;2.88;;;10.20;99.90;;;;;;5056213;28;20212;-62
2021/11/13 12:29:01;;;;;;;0.20;0.20;;;10.10;99.90;;;;;;5051319;28;20200;-66
2021/11/13 12:31:36;;;;;;;3.50;0.88;;;10.30;99.90;;;;;;5056150;28;20173;-65
2021/11/13 12:34:08;;;;;;;0.93;0.45;;;10.40;99.90;;;;;;5050326;28;20732;-63
2021/11/13 12:36:47;;;;;;;0.30;0.20;;;10.50;99.90;;;;;;5051577;28;20220;-67
2021/11/13 12:39:14;;;;;;;0.20;0.10;;;10.40;99.90;;;;;;5049507;28;20193;-64
2021/11/13 12:41:44;;;;;;;0.30;0.20;;;10.40;99.90;;;;;;5052675;28;20443;-64
2021/11/13 12:44:28;;;;;;;0.35;0.35;;;10.30;99.90;;;;;;5051348;28;20552;-63
2021/11/13 12:47:11;;;;;;;0.20;0.10;;;10.10;99.90;;;;;;5047928;28;20208;-65
2021/11/13 12:49:57;;;;;;;0.20;0.10;;;10.00;99.90;;;;;;5050450;28;20192;-63
2021/11/13 12:52:31;;;;;;;0.60;0.60;;;10.10;99.90;;;;;;5055423;28;20250;-68
2021/11/13 12:55:07;;;;;;;2.05;1.02;;;10.20;99.90;;;;;;5054183;28;20608;-68
2021/11/13 12:57:39;;;;;;;0.50;0.50;;;10.30;99.90;;;;;;5055786;28;20264;-67